• Join FlightAware (Why Join?)
  • Login
  • US Flag 
08:51PM EDT


 

Airport Tracker/Info


-or-


 

Live Flight TrackerFlight Track Log ✈ AWE9325 ✈ 20-Apr-2013 ✈ KLAX - KPHX

Flight Track Log - Related Links

Times and Time Zones

All times are in EDT time to prevent confusion due to time zone crossing. See the AWE9325 flight status page for this flight to view local times or setup timezone preferences in your user account.

Time Position Orientation Groundspeed Altitude Reporting Facility
EDT Latitude Longitude Course Direction KTS MPH feet Rate Location/Type
08:04PM 33.9275 -118.1323 94° East  Level Estimated
08:05PM 33.9224 -118.0405 94° East  Level Estimated
08:06PM 33.9172 -117.9486 94° East  Level Estimated
08:07PM 33.9119 -117.8567 94° East  Level Estimated
08:08PM 33.9066 -117.7648 94° East  Level Estimated
08:09PM 33.9011 -117.6730 94° East  Level Estimated
08:10PM 33.8957 -117.5812 94° East  Level Estimated
08:11PM 33.8901 -117.4894 94° East  Level Estimated
08:12PM 33.8845 -117.3976 94° East  Level Estimated
08:13PM 33.8788 -117.3057 94° East  Level Estimated
08:14PM 33.8731 -117.2140 94° East  Level Estimated
08:15PM 33.8673 -117.1222 94° East  Level Estimated
08:16PM 33.8614 -117.0304 94° East  Level Estimated
08:17PM 33.8554 -116.9387 94° East  Level Estimated
08:18PM 33.8494 -116.8470 94° East  Level Estimated
08:19PM 33.8433 -116.7552 95° East  Level Estimated
08:20PM 33.8372 -116.6635 95° East  Level Estimated
08:21PM 33.8309 -116.5718 95° East  Level Estimated
08:22PM 33.8246 -116.4802 95° East  Level Estimated
08:23PM 33.8183 -116.3885 95° East  Level Estimated
08:24PM 33.8119 -116.2968 95° East  Level Estimated
08:25PM 33.8054 -116.2052 95° East  Level Estimated
08:26PM 33.7988 -116.1136 95° East  Level Estimated
08:27PM 33.7922 -116.0220 95° East  Level Estimated
08:28PM 33.7855 -115.9304 95° East  Level Estimated
08:29PM 33.7787 -115.8388 95° East  Level Estimated
08:30PM 33.7719 -115.7472 95° East  Level Estimated
08:31PM 33.7650 -115.6557 95° East  Level Estimated
08:32PM 33.7580 -115.5641 95° East  Level Estimated
08:33PM 33.7510 -115.4726 95° East  Level Estimated
08:34PM 33.7439 -115.3811 95° East  Level Estimated
08:35PM 33.7367 -115.2896 95° East  Level Estimated
08:36PM 33.7295 -115.1981 95° East  Level Estimated
08:37PM 33.7221 -115.1067 95° East  Level Estimated
08:38PM 33.7127 -114.9903 96° East  Level Estimated
08:39PM 33.7032 -114.8739 96° East  Level Estimated
08:40PM 33.6936 -114.7576 96° East  Level Estimated
08:41PM 33.6839 -114.6413 96° East  Level Estimated
08:42PM 33.6741 -114.5250 96° East  Level Estimated
08:43PM 33.6641 -114.4088 96° East  Level Estimated
08:44PM 33.6541 -114.2925 96° East  Level Estimated
08:45PM 33.6439 -114.1763 96° East  Level Estimated
08:46PM 33.6336 -114.0602 96° East  Level Estimated
08:47PM 33.6233 -113.9440 96° East  Level Estimated
08:48PM 33.6128 -113.8279 96° East  Level Estimated
08:49PM 33.6013 -113.7027 96° East  Level Estimated
08:50PM 33.5898 -113.5776 96° East  Level Estimated
08:51PM 33.5781 -113.4524 96° East  Level Estimated
08:52PM 33.5663 -113.3273 96° East  Level Estimated
08:53PM 33.5544 -113.2023 96° East  Level Estimated
08:54PM 33.5423 -113.0773 97° East  Level Estimated
08:55PM 33.5301 -112.9523 97° East  Level Estimated
08:56PM 33.5178 -112.8273 97° East  Level Estimated
08:57PM 33.5054 -112.7024 97° East  Level Estimated
08:58PM 33.4928 -112.5776 97° East  Level Estimated
08:59PM 33.4801 -112.4527 97° East  Level Estimated